createdAt,value
2023-05-09T00:01:13.965Z,19.36
2023-05-09T00:03:42.314Z,19.41
2023-05-09T00:06:09.308Z,19.41
2023-05-09T00:08:36.080Z,19.43
2023-05-09T00:11:02.507Z,19.43
2023-05-09T00:13:28.921Z,19.43
2023-05-09T00:15:57.238Z,18.91
2023-05-09T00:18:23.805Z,19.38
2023-05-09T00:20:50.756Z,19.58
2023-05-09T00:23:17.070Z,19.45
2023-05-09T00:25:43.705Z,19.37
2023-05-09T00:28:10.170Z,19.43
2023-05-09T00:30:36.705Z,19.17
2023-05-09T00:33:03.099Z,19.39
2023-05-09T00:35:29.619Z,19.58
2023-05-09T00:37:55.936Z,19.58
2023-05-09T00:40:22.418Z,19.05
2023-05-09T00:42:48.786Z,19.64
2023-05-09T00:45:15.435Z,19.44
2023-05-09T00:47:42.134Z,19.59
2023-05-09T00:50:09.185Z,19.53
2023-05-09T00:52:36.328Z,19.82
2023-05-09T00:55:02.868Z,19.62
2023-05-09T00:57:29.198Z,19.82
2023-05-09T00:59:56.006Z,19.75
2023-05-09T01:02:22.441Z,19.79
2023-05-09T01:04:48.849Z,19.82
2023-05-09T01:07:35.370Z,19.89
2023-05-09T01:10:11.704Z,19.83
2023-05-09T01:13:00.160Z,19.80
2023-05-09T01:15:51.083Z,19.88
2023-05-09T01:18:26.148Z,19.99
2023-05-09T01:21:01.734Z,19.74
2023-05-09T01:23:55.688Z,19.87
2023-05-09T01:26:24.939Z,19.80
2023-05-09T01:29:36.718Z,19.68
2023-05-09T01:32:08.119Z,19.85
2023-05-09T01:34:35.567Z,19.82
2023-05-09T01:37:04.932Z,19.91
2023-05-09T01:39:33.792Z,20.23
2023-05-09T01:42:02.586Z,19.99
2023-05-09T01:44:37.870Z,20.01
2023-05-09T01:47:04.874Z,19.92
2023-05-09T01:49:33.458Z,19.86
2023-05-09T01:52:03.684Z,20.08
2023-05-09T01:54:31.206Z,20.08
2023-05-09T01:56:59.126Z,19.86
2023-05-09T01:59:27.116Z,19.85
2023-05-09T02:01:55.166Z,19.93
2023-05-09T02:04:22.175Z,19.97
2023-05-09T02:06:52.949Z,19.94
2023-05-09T02:09:20.359Z,20.13
2023-05-09T02:11:46.967Z,19.58
2023-05-09T02:14:14.028Z,19.66
2023-05-09T02:16:40.787Z,19.88
2023-05-09T02:19:07.326Z,19.81
2023-05-09T02:21:33.927Z,19.65
2023-05-09T02:24:00.326Z,20.09
2023-05-09T02:26:28.330Z,19.40
2023-05-09T02:28:56.085Z,20.01
2023-05-09T02:31:25.036Z,20.12
2023-05-09T02:33:54.067Z,20.00
2023-05-09T02:36:22.128Z,19.99
2023-05-09T02:38:48.675Z,20.11
2023-05-09T02:41:16.092Z,20.00
2023-05-09T02:43:42.999Z,20.07
2023-05-09T02:46:10.384Z,20.09
2023-05-09T02:48:37.394Z,19.99
2023-05-09T02:51:04.331Z,19.80
2023-05-09T02:53:31.084Z,19.77
2023-05-09T02:55:57.406Z,19.18
2023-05-09T02:58:23.813Z,19.56
2023-05-09T03:00:50.855Z,19.70
2023-05-09T03:03:18.018Z,19.71
2023-05-09T03:05:44.702Z,19.79
2023-05-09T03:08:11.049Z,19.77
2023-05-09T03:10:37.398Z,19.83
2023-05-09T03:13:03.999Z,19.95
2023-05-09T03:15:30.564Z,19.78
2023-05-09T03:17:56.898Z,19.70
2023-05-09T03:20:23.283Z,19.80
2023-05-09T03:22:49.641Z,19.91
2023-05-09T03:25:16.723Z,19.92
2023-05-09T03:27:57.317Z,19.73
2023-05-09T03:30:23.836Z,19.69
2023-05-09T03:32:50.239Z,19.44
2023-05-09T03:35:16.868Z,19.89
2023-05-09T03:37:43.388Z,19.72
2023-05-09T03:40:10.133Z,19.74
2023-05-09T03:42:36.474Z,19.25
2023-05-09T03:45:02.805Z,19.89
2023-05-09T03:47:29.141Z,19.92
2023-05-09T03:49:55.621Z,19.78
2023-05-09T03:52:21.979Z,19.87
2023-05-09T03:54:48.382Z,19.85
2023-05-09T03:57:14.699Z,19.96
2023-05-09T03:59:41.038Z,19.91
2023-05-09T04:02:07.401Z,19.78
2023-05-09T04:04:33.860Z,19.62
2023-05-09T04:07:00.207Z,19.68
2023-05-09T04:09:27.285Z,19.64
2023-05-09T04:11:53.624Z,19.53
2023-05-09T04:14:19.973Z,19.62
2023-05-09T04:16:46.360Z,19.20
2023-05-09T04:19:12.713Z,19.70
2023-05-09T04:21:39.053Z,19.73
2023-05-09T04:24:05.861Z,19.63
2023-05-09T04:26:32.287Z,19.49
2023-05-09T04:28:58.659Z,19.09
2023-05-09T04:31:26.366Z,19.39
2023-05-09T04:33:52.862Z,19.02
2023-05-09T04:36:19.318Z,19.49
2023-05-09T04:38:46.397Z,19.49
2023-05-09T04:41:12.725Z,19.53
2023-05-09T04:43:39.099Z,19.56
2023-05-09T04:46:05.655Z,19.13
2023-05-09T04:48:32.030Z,19.81
2023-05-09T04:50:58.510Z,19.78
2023-05-09T04:53:24.828Z,19.85
2023-05-09T04:55:51.864Z,19.52
2023-05-09T04:58:18.247Z,19.87
2023-05-09T05:00:44.641Z,19.40
2023-05-09T05:03:11.103Z,19.59
2023-05-09T05:05:38.001Z,19.85
2023-05-09T05:08:04.773Z,20.03
2023-05-09T05:10:31.230Z,19.56
2023-05-09T05:12:57.649Z,19.99
2023-05-09T05:15:24.053Z,19.69
2023-05-09T05:17:50.452Z,19.58
2023-05-09T05:20:16.945Z,19.46
2023-05-09T05:22:45.775Z,19.97
2023-05-09T05:25:13.191Z,19.43
2023-05-09T05:27:39.896Z,19.87
2023-05-09T05:30:07.580Z,19.66
2023-05-09T05:32:33.930Z,19.94
2023-05-09T05:35:02.456Z,20.06
2023-05-09T05:37:28.918Z,19.23
2023-05-09T05:39:55.384Z,19.52
2023-05-09T05:42:21.731Z,19.90
2023-05-09T05:44:48.094Z,20.04
2023-05-09T05:47:14.447Z,19.67
2023-05-09T05:49:41.150Z,20.05
2023-05-09T05:52:07.529Z,20.02
2023-05-09T05:54:33.889Z,20.10
2023-05-09T05:57:00.372Z,20.07
2023-05-09T05:59:26.796Z,19.88
2023-05-09T06:01:53.258Z,20.29
2023-05-09T06:04:19.785Z,20.47
2023-05-09T06:06:46.720Z,20.30
2023-05-09T06:09:13.153Z,19.95
2023-05-09T06:11:39.549Z,19.92
2023-05-09T06:14:06.130Z,19.73
2023-05-09T06:16:32.789Z,19.84
2023-05-09T06:18:59.233Z,20.41
2023-05-09T06:21:26.209Z,20.01
2023-05-09T06:24:07.921Z,20.37
2023-05-09T06:26:38.698Z,20.54
2023-05-09T06:29:06.406Z,20.56
2023-05-09T06:31:35.710Z,20.45
2023-05-09T06:34:02.152Z,20.48
2023-05-09T06:36:28.485Z,20.52
2023-05-09T06:38:54.835Z,20.49
2023-05-09T06:41:21.749Z,20.44
2023-05-09T06:43:48.606Z,20.55
2023-05-09T06:46:16.353Z,20.21
2023-05-09T06:48:42.789Z,20.30
2023-05-09T06:51:09.261Z,20.62
2023-05-09T06:53:35.639Z,20.17
2023-05-09T06:56:04.856Z,20.67
2023-05-09T06:58:31.334Z,20.39
2023-05-09T07:00:57.942Z,20.81
2023-05-09T07:03:24.345Z,20.95
2023-05-09T07:05:52.332Z,20.45
2023-05-09T07:08:18.749Z,21.01
2023-05-09T07:10:45.142Z,20.71
2023-05-09T07:13:11.508Z,21.10
2023-05-09T07:15:41.826Z,20.76
2023-05-09T07:18:09.437Z,20.99
2023-05-09T07:20:36.098Z,21.37
2023-05-09T07:23:05.881Z,21.43
2023-05-09T07:25:32.274Z,21.40
2023-05-09T07:27:58.661Z,21.41
2023-05-09T07:30:25.176Z,21.58
2023-05-09T07:32:51.962Z,21.55
2023-05-09T07:35:19.133Z,21.68
2023-05-09T07:37:45.792Z,21.15
2023-05-09T07:40:12.698Z,21.64
2023-05-09T07:42:39.440Z,21.77
2023-05-09T07:45:06.438Z,21.83
2023-05-09T07:47:33.363Z,22.06
2023-05-09T07:49:59.751Z,22.15
2023-05-09T07:52:26.265Z,22.08
2023-05-09T07:54:52.654Z,22.05
2023-05-09T07:57:19.091Z,22.16
2023-05-09T07:59:45.511Z,21.97
2023-05-09T08:02:11.888Z,22.16
2023-05-09T08:04:39.052Z,22.37
2023-05-09T08:07:05.664Z,22.42
2023-05-09T08:09:32.289Z,22.71
2023-05-09T08:14:24.942Z,22.39
2023-05-09T08:16:51.439Z,22.97
2023-05-09T08:19:18.833Z,22.30
2023-05-09T08:21:45.527Z,22.54
2023-05-09T08:24:11.931Z,22.40
2023-05-09T08:26:38.330Z,22.42
2023-05-09T08:29:04.728Z,23.05
2023-05-09T08:31:31.157Z,22.91
2023-05-09T08:33:57.542Z,23.22
2023-05-09T08:36:24.063Z,22.36
2023-05-09T08:38:50.508Z,22.88
2023-05-09T08:41:17.215Z,22.89
2023-05-09T08:43:44.206Z,22.76
2023-05-09T08:46:11.932Z,22.98
2023-05-09T08:48:39.620Z,23.82
2023-05-09T08:51:08.111Z,23.43
2023-05-09T08:53:34.682Z,22.94
2023-05-09T08:56:02.644Z,22.96
2023-05-09T08:58:29.480Z,22.69
2023-05-09T09:00:56.646Z,23.40
2023-05-09T09:03:26.173Z,23.19
2023-05-09T09:05:54.458Z,23.01
2023-05-09T09:08:22.864Z,22.60
2023-05-09T09:10:49.688Z,23.06
2023-05-09T09:13:18.272Z,22.83
2023-05-09T09:15:46.930Z,22.83
2023-05-09T09:18:21.887Z,22.71
2023-05-09T09:20:51.205Z,22.30
2023-05-09T09:23:20.522Z,22.50
2023-05-09T09:25:47.542Z,22.74
2023-05-09T09:28:14.015Z,22.90
2023-05-09T09:30:48.214Z,23.15
2023-05-09T09:33:26.194Z,23.00
2023-05-09T09:35:54.545Z,22.37
2023-05-09T09:38:22.471Z,22.85
2023-05-09T09:40:51.903Z,23.78
2023-05-09T09:43:19.342Z,23.62
2023-05-09T09:45:50.938Z,23.74
2023-05-09T09:48:17.414Z,23.14
2023-05-09T09:50:43.739Z,23.43
2023-05-09T09:53:12.530Z,23.55
2023-05-09T09:55:50.081Z,23.78
2023-05-09T09:58:27.328Z,23.96
2023-05-09T10:01:11.240Z,24.21
2023-05-09T10:03:37.749Z,24.53
2023-05-09T10:06:04.592Z,24.66
2023-05-09T10:08:31.210Z,24.03
2023-05-09T10:10:59.758Z,24.09
2023-05-09T10:13:27.156Z,23.43
2023-05-09T10:15:55.323Z,24.41
2023-05-09T10:18:28.475Z,24.17
2023-05-09T10:20:57.958Z,23.78
2023-05-09T10:23:25.296Z,23.39
2023-05-09T10:26:03.080Z,23.28
2023-05-09T10:28:33.140Z,23.67
2023-05-09T10:31:22.422Z,23.70
2023-05-09T10:33:51.040Z,23.50
2023-05-09T10:36:20.309Z,23.81
2023-05-09T10:38:48.585Z,23.75
2023-05-09T10:41:18.733Z,23.72
2023-05-09T10:43:45.802Z,24.00
2023-05-09T10:46:13.100Z,24.06
2023-05-09T10:48:40.090Z,23.71
2023-05-09T10:51:08.018Z,23.58
2023-05-09T10:53:45.536Z,23.63
2023-05-09T10:56:32.641Z,23.50
2023-05-09T10:59:00.013Z,23.68
2023-05-09T11:01:38.990Z,23.87
2023-05-09T11:04:11.353Z,24.19
2023-05-09T11:06:41.972Z,24.44
2023-05-09T11:09:28.024Z,24.31
2023-05-09T11:12:00.534Z,24.16
2023-05-09T11:14:39.466Z,23.88
2023-05-09T11:17:08.381Z,23.54
2023-05-09T11:19:46.724Z,23.52
2023-05-09T11:22:21.650Z,23.29
2023-05-09T11:24:50.059Z,22.14
2023-05-09T11:27:20.583Z,21.83
2023-05-09T11:29:55.803Z,20.86
2023-05-09T11:32:27.739Z,21.21
2023-05-09T11:35:15.818Z,20.96
2023-05-09T11:37:50.205Z,20.33
2023-05-09T11:40:19.140Z,20.11
2023-05-09T11:42:58.472Z,20.01
2023-05-09T11:45:27.444Z,19.95
2023-05-09T11:47:54.254Z,19.74
2023-05-09T11:50:21.666Z,19.93
2023-05-09T11:52:48.895Z,20.06
2023-05-09T11:55:18.414Z,19.52
2023-05-09T11:57:48.887Z,19.78
2023-05-09T12:00:19.819Z,19.79
2023-05-09T12:02:47.091Z,20.43
2023-05-09T12:05:15.679Z,19.61
2023-05-09T12:07:42.908Z,19.95
2023-05-09T12:10:11.377Z,20.48
2023-05-09T12:12:47.338Z,20.44
2023-05-09T12:15:14.490Z,20.69
2023-05-09T12:17:44.951Z,20.59
2023-05-09T12:20:11.668Z,20.25
2023-05-09T12:22:38.213Z,21.09
2023-05-09T12:25:09.506Z,20.61
2023-05-09T12:27:37.510Z,20.29
2023-05-09T12:30:10.044Z,20.84
2023-05-09T12:32:39.415Z,20.81
2023-05-09T12:35:08.559Z,20.31
2023-05-09T12:37:34.971Z,19.88
2023-05-09T12:40:12.807Z,20.77
2023-05-09T12:42:42.918Z,20.47
2023-05-09T12:45:10.183Z,20.05
2023-05-09T12:47:38.997Z,20.39
2023-05-09T12:50:07.367Z,19.34
2023-05-09T12:52:46.913Z,20.30
2023-05-09T12:55:25.202Z,20.29
2023-05-09T12:58:00.568Z,19.76
2023-05-09T13:00:30.616Z,20.08
2023-05-09T13:02:57.146Z,19.68
2023-05-09T13:05:24.256Z,20.15
2023-05-09T13:07:52.523Z,20.41
2023-05-09T13:10:23.556Z,20.06
2023-05-09T13:12:51.253Z,20.19
2023-05-09T13:15:21.674Z,19.62
2023-05-09T13:17:49.491Z,19.45
2023-05-09T13:20:17.091Z,20.37
2023-05-09T13:22:44.739Z,19.95
2023-05-09T13:25:12.019Z,20.14
2023-05-09T13:27:38.612Z,19.72
2023-05-09T13:30:07.744Z,19.09
2023-05-09T13:32:35.070Z,19.84
2023-05-09T13:35:01.472Z,19.96
2023-05-09T13:37:28.222Z,19.40
2023-05-09T13:40:00.892Z,19.26
2023-05-09T13:42:27.907Z,19.72
2023-05-09T13:44:54.322Z,18.76
2023-05-09T13:47:21.019Z,19.22
2023-05-09T13:49:47.426Z,19.05
2023-05-09T13:52:16.041Z,18.96
2023-05-09T13:54:42.597Z,19.37
2023-05-09T13:57:09.036Z,18.65
2023-05-09T13:59:35.492Z,18.94
2023-05-09T14:02:02.124Z,19.08
2023-05-09T14:04:32.582Z,19.86
2023-05-09T14:07:00.059Z,18.96
2023-05-09T14:09:28.331Z,19.48
2023-05-09T14:12:02.676Z,19.48
2023-05-09T14:14:29.055Z,19.36
2023-05-09T14:16:59.309Z,19.29
2023-05-09T14:19:27.095Z,19.34
2023-05-09T14:21:53.613Z,18.74
2023-05-09T14:24:30.040Z,18.34
2023-05-09T14:26:57.450Z,18.92
2023-05-09T14:29:29.569Z,18.66
2023-05-09T14:31:56.161Z,19.17
2023-05-09T14:34:22.869Z,18.60
2023-05-09T14:36:50.292Z,18.18
2023-05-09T14:39:22.109Z,18.77
2023-05-09T14:41:49.957Z,18.81
2023-05-09T14:44:17.267Z,18.42
2023-05-09T14:46:43.867Z,18.60
2023-05-09T14:49:10.348Z,18.68
2023-05-09T14:51:40.286Z,18.56
2023-05-09T14:54:06.804Z,18.54
2023-05-09T14:56:33.369Z,17.49
2023-05-09T14:59:00.069Z,17.97
2023-05-09T15:01:26.613Z,17.94
2023-05-09T15:03:53.123Z,18.32
2023-05-09T15:06:19.518Z,18.47
2023-05-09T15:08:46.141Z,18.00
2023-05-09T15:11:12.616Z,18.06
2023-05-09T15:13:39.093Z,18.18
2023-05-09T15:16:08.688Z,17.75
2023-05-09T15:18:37.436Z,18.07
2023-05-09T15:21:04.195Z,18.53
2023-05-09T15:23:30.835Z,17.93
2023-05-09T15:25:57.537Z,18.18
2023-05-09T15:28:24.228Z,18.18
2023-05-09T15:30:51.049Z,18.27
2023-05-09T15:33:17.776Z,18.01
2023-05-09T15:35:45.122Z,18.02
2023-05-09T15:38:15.464Z,17.64
2023-05-09T15:40:42.214Z,17.94
2023-05-09T15:43:08.723Z,17.93
2023-05-09T15:45:36.905Z,18.59
2023-05-09T15:48:03.978Z,18.41
2023-05-09T15:50:30.322Z,18.83
2023-05-09T15:52:57.054Z,18.72
2023-05-09T15:55:23.476Z,17.83
2023-05-09T15:57:51.379Z,18.07
2023-05-09T16:00:18.291Z,17.89
2023-05-09T16:02:44.925Z,17.87
2023-05-09T16:05:11.400Z,18.57
2023-05-09T16:07:37.855Z,18.01
2023-05-09T16:10:05.184Z,18.66
2023-05-09T16:12:32.803Z,18.60
2023-05-09T16:14:59.456Z,18.79
2023-05-09T16:17:25.981Z,18.59
2023-05-09T16:19:52.407Z,18.91
2023-05-09T16:22:19.194Z,18.23
2023-05-09T16:24:46.356Z,18.79
2023-05-09T16:27:14.324Z,18.70
2023-05-09T16:29:41.412Z,18.84
2023-05-09T16:32:08.672Z,18.60
2023-05-09T16:34:36.554Z,18.66
2023-05-09T16:37:03.772Z,17.81
2023-05-09T16:39:35.535Z,18.12
2023-05-09T16:42:07.599Z,18.41
2023-05-09T16:44:34.088Z,18.05
2023-05-09T16:47:03.795Z,18.06
2023-05-09T16:49:30.269Z,18.28
2023-05-09T16:51:58.831Z,17.94
2023-05-09T16:54:25.409Z,17.62
2023-05-09T16:56:51.785Z,17.97
2023-05-09T16:59:18.604Z,18.38
2023-05-09T17:01:45.125Z,18.21
2023-05-09T17:04:11.667Z,18.54
2023-05-09T17:06:38.243Z,18.51
2023-05-09T17:09:04.705Z,18.47
2023-05-09T17:11:31.150Z,18.19
2023-05-09T17:13:57.510Z,18.47
2023-05-09T17:16:23.878Z,18.00
2023-05-09T17:18:51.911Z,18.42
2023-05-09T17:21:20.110Z,18.07
2023-05-09T17:23:46.561Z,18.19
2023-05-09T17:26:12.939Z,18.01
2023-05-09T17:28:39.376Z,18.38
2023-05-09T17:31:05.894Z,18.00
2023-05-09T17:33:32.361Z,18.22
2023-05-09T17:35:59.958Z,18.34
2023-05-09T17:38:26.364Z,18.36
2023-05-09T17:40:52.704Z,18.45
2023-05-09T17:43:19.204Z,18.42
2023-05-09T17:45:46.233Z,18.02
2023-05-09T17:48:13.427Z,17.93
2023-05-09T17:50:39.849Z,18.22
2023-05-09T17:53:08.903Z,18.21
2023-05-09T17:55:35.669Z,17.75
2023-05-09T17:58:04.433Z,17.61
2023-05-09T18:00:30.942Z,17.49
2023-05-09T18:03:01.494Z,18.24
2023-05-09T18:05:28.027Z,18.03
2023-05-09T18:07:54.431Z,17.53
2023-05-09T18:10:23.407Z,17.86
2023-05-09T18:12:49.902Z,17.42
2023-05-09T18:15:16.306Z,17.33
2023-05-09T18:17:42.894Z,17.11
2023-05-09T18:20:09.837Z,17.27
2023-05-09T18:22:37.314Z,17.32
2023-05-09T18:25:03.968Z,16.50
2023-05-09T18:27:30.418Z,16.95
2023-05-09T18:29:56.804Z,17.18
2023-05-09T18:32:23.240Z,16.99
2023-05-09T18:34:50.274Z,17.46
2023-05-09T18:37:17.042Z,17.16
2023-05-09T18:39:45.022Z,17.28
2023-05-09T18:42:16.175Z,17.28
2023-05-09T18:44:43.072Z,16.87
2023-05-09T18:47:09.547Z,17.20
2023-05-09T18:49:36.222Z,17.20
2023-05-09T18:52:03.387Z,17.29
2023-05-09T18:54:30.296Z,16.67
2023-05-09T18:56:57.034Z,17.22
2023-05-09T18:59:24.554Z,16.60
2023-05-09T19:01:50.954Z,16.87
2023-05-09T19:04:19.990Z,16.68
2023-05-09T19:06:47.226Z,16.28
2023-05-09T19:09:13.665Z,16.92
2023-05-09T19:11:40.277Z,16.75
2023-05-09T19:14:07.129Z,17.15
2023-05-09T19:16:33.687Z,16.98
2023-05-09T19:19:00.865Z,17.02
2023-05-09T19:21:28.249Z,16.65
2023-05-09T19:23:54.879Z,16.49
2023-05-09T19:26:22.080Z,16.62
2023-05-09T19:28:48.555Z,16.57
2023-05-09T19:31:15.973Z,17.16
2023-05-09T19:33:47.501Z,16.69
2023-05-09T19:36:19.336Z,16.38
2023-05-09T19:38:48.024Z,16.87
2023-05-09T19:41:14.437Z,16.31
2023-05-09T19:43:40.915Z,16.85
2023-05-09T19:46:09.886Z,16.54
2023-05-09T19:48:36.377Z,16.74
2023-05-09T19:51:03.016Z,16.52
2023-05-09T19:53:29.413Z,16.81
2023-05-09T19:55:55.812Z,16.75
2023-05-09T19:58:22.314Z,16.26
2023-05-09T20:00:48.733Z,16.11
2023-05-09T20:03:17.442Z,16.26
2023-05-09T20:05:45.078Z,16.61
2023-05-09T20:08:11.591Z,16.71
2023-05-09T20:10:38.095Z,16.74
2023-05-09T20:13:04.712Z,16.75
2023-05-09T20:15:33.773Z,16.73
2023-05-09T20:18:03.476Z,16.79
2023-05-09T20:20:32.153Z,16.71
2023-05-09T20:22:58.630Z,16.69
2023-05-09T20:25:25.188Z,15.98
2023-05-09T20:27:51.761Z,16.54
2023-05-09T20:30:18.151Z,16.25
2023-05-09T20:32:44.621Z,16.74
2023-05-09T20:35:11.172Z,16.25
2023-05-09T20:37:37.663Z,16.55
2023-05-09T20:40:08.459Z,15.96
2023-05-09T20:42:35.089Z,16.24
2023-05-09T20:45:02.085Z,16.20
2023-05-09T20:47:28.711Z,16.67
2023-05-09T20:49:56.239Z,16.72
2023-05-09T20:52:24.569Z,16.36
2023-05-09T20:54:50.887Z,16.46
2023-05-09T20:57:17.246Z,16.37
2023-05-09T20:59:44.204Z,16.63
2023-05-09T21:02:11.138Z,16.45
2023-05-09T21:04:37.686Z,16.63
2023-05-09T21:07:04.047Z,16.58
2023-05-09T21:09:30.436Z,16.62
2023-05-09T21:11:57.053Z,16.65
2023-05-09T21:14:23.386Z,16.57
2023-05-09T21:16:51.530Z,16.29
2023-05-09T21:19:17.923Z,16.65
2023-05-09T21:21:44.324Z,16.03
2023-05-09T21:24:10.736Z,16.60
2023-05-09T21:26:37.297Z,16.59
2023-05-09T21:29:03.708Z,16.43
2023-05-09T21:31:30.207Z,16.37
2023-05-09T21:33:57.677Z,16.24
2023-05-09T21:36:24.073Z,16.45
2023-05-09T21:38:50.806Z,16.51
2023-05-09T21:41:17.275Z,16.45
2023-05-09T21:43:43.620Z,16.70
2023-05-09T21:46:10.190Z,16.65
2023-05-09T21:48:36.709Z,16.32
2023-05-09T21:51:03.669Z,16.30
2023-05-09T21:53:30.166Z,16.38
2023-05-09T21:55:56.596Z,16.49
2023-05-09T21:58:22.982Z,16.07
2023-05-09T22:00:49.465Z,16.80
2023-05-09T22:03:15.933Z,16.71
2023-05-09T22:05:42.376Z,16.31
2023-05-09T22:08:09.215Z,16.21
2023-05-09T22:10:37.678Z,16.69
2023-05-09T22:13:04.165Z,15.91
2023-05-09T22:15:30.618Z,16.69
2023-05-09T22:17:59.823Z,16.64
2023-05-09T22:20:26.328Z,16.44
2023-05-09T22:22:52.686Z,16.26
2023-05-09T22:25:19.450Z,16.52
2023-05-09T22:27:45.781Z,16.46
2023-05-09T22:30:12.497Z,16.34
2023-05-09T22:32:39.366Z,16.30
2023-05-09T22:35:06.193Z,16.31
2023-05-09T22:37:32.607Z,16.75
2023-05-09T22:40:01.361Z,16.48
2023-05-09T22:42:29.251Z,16.51
2023-05-09T22:44:55.791Z,16.64
2023-05-09T22:47:22.237Z,16.89
2023-05-09T22:49:49.758Z,16.95
2023-05-09T22:52:16.206Z,16.90
2023-05-09T22:54:42.679Z,16.83
2023-05-09T22:57:09.548Z,16.91
2023-05-09T22:59:36.897Z,16.02
2023-05-09T23:02:03.836Z,16.31
2023-05-09T23:04:30.297Z,16.35
2023-05-09T23:06:56.730Z,16.84
2023-05-09T23:09:23.265Z,16.29
2023-05-09T23:11:49.762Z,16.38
2023-05-09T23:14:16.133Z,16.54
2023-05-09T23:16:42.700Z,16.82
2023-05-09T23:19:10.304Z,16.33
2023-05-09T23:21:36.763Z,16.78
2023-05-09T23:24:03.605Z,16.63
2023-05-09T23:26:29.964Z,16.83
2023-05-09T23:28:56.571Z,16.27
2023-05-09T23:31:23.067Z,16.54
2023-05-09T23:33:49.598Z,16.22
2023-05-09T23:36:16.060Z,16.33
2023-05-09T23:38:42.455Z,16.12
2023-05-09T23:41:08.837Z,16.08
2023-05-09T23:43:35.187Z,16.70
2023-05-09T23:46:01.794Z,16.67
2023-05-09T23:48:28.172Z,16.70
2023-05-09T23:50:54.535Z,16.29
2023-05-09T23:53:21.011Z,16.51
2023-05-09T23:55:47.368Z,16.31
2023-05-09T23:58:14.155Z,16.09
